Ana Sayfa
METAR-TAF:

METAR-TAF

Havaalanları :

Pikeville, Kentucky, Amerika Birleşik Devletleri

Enlem: 37-33-42N, Boylam: 082-33-59W, yükseklik: 449 m

Güncel hava durumu gözlemi

Rapor saat 09:55 UTC de 21 dakika önce yapıldı.
Rüzgar güney/güneydoğudan 6 kt
Sıcaklık 9°C
Nem 100%
Basınç 1006 hPa
Görüş mesafesi: 16.1 km
4500 ft yükseklikte parçalı çok bulutlu

METAR: KPBX 250955Z AUTO 15006KT 10SM BKN045 09/09 A2970 RMK AO2 T00920092

Saat: 05:16 (10:16 UTC)


TAF: eksik

4.000'den fazla havaalanı için hava durumu gözlemleri ve tahminleri (METAR ve TAF raporları).

Kullanılabilir istasyonlar harita üzerinde sarı ve kırmızı noktalarla gösterilir.

İstasyonun adını görmek için fareyi noktanın üzerinde gezdirin.

Sonrasında hava gözlem ve tahminlerini görmek için tıklayın.

Haritayı değiştirmek için: yaklaştırmak için siyah artı işaretli yeşil düğmeye ve uzaklaştırmak için de eksi işaretli düğmeye hızla tıklayın; bitişik haritalar için yeşil okları kullanın.


METAR-TAF: